sensor_id;sensor_type;location;lat;lon;timestamp;P1;durP1;ratioP1;P2;durP2;ratioP2
73951;SDS011;62304;47.662;18.324;2022-12-07T00:00:46;27.77;;;13.70;;
73951;SDS011;62304;47.662;18.324;2022-12-07T00:03:50;34.45;;;16.15;;
73951;SDS011;62304;47.662;18.324;2022-12-07T00:06:54;34.83;;;14.98;;
73951;SDS011;62304;47.662;18.324;2022-12-07T00:09:57;29.40;;;14.20;;
73951;SDS011;62304;47.662;18.324;2022-12-07T00:13:00;29.10;;;13.32;;
73951;SDS011;62304;47.662;18.324;2022-12-07T00:16:05;31.08;;;13.90;;
73951;SDS011;62304;47.662;18.324;2022-12-07T00:19:08;29.23;;;14.25;;
73951;SDS011;62304;47.662;18.324;2022-12-07T00:22:12;30.42;;;13.77;;
73951;SDS011;62304;47.662;18.324;2022-12-07T00:25:15;26.00;;;13.00;;
73951;SDS011;62304;47.662;18.324;2022-12-07T00:28:18;28.83;;;14.32;;
73951;SDS011;62304;47.662;18.324;2022-12-07T00:31:21;27.00;;;13.82;;
73951;SDS011;62304;47.662;18.324;2022-12-07T00:34:26;27.98;;;12.82;;
73951;SDS011;62304;47.662;18.324;2022-12-07T00:37:28;32.85;;;13.98;;
73951;SDS011;62304;47.662;18.324;2022-12-07T00:40:32;34.40;;;14.83;;
73951;SDS011;62304;47.662;18.324;2022-12-07T00:43:35;33.95;;;14.95;;
73951;SDS011;62304;47.662;18.324;2022-12-07T00:46:38;37.00;;;16.02;;
73951;SDS011;62304;47.662;18.324;2022-12-07T00:49:41;34.70;;;15.05;;
73951;SDS011;62304;47.662;18.324;2022-12-07T00:52:44;31.55;;;15.15;;
73951;SDS011;62304;47.662;18.324;2022-12-07T00:55:46;35.03;;;15.73;;
73951;SDS011;62304;47.662;18.324;2022-12-07T00:58:53;34.97;;;16.08;;
73951;SDS011;62304;47.662;18.324;2022-12-07T01:02:00;35.70;;;15.73;;
73951;SDS011;62304;47.662;18.324;2022-12-07T01:05:03;34.70;;;15.50;;
73951;SDS011;62304;47.662;18.324;2022-12-07T01:08:08;33.22;;;16.05;;
73951;SDS011;62304;47.662;18.324;2022-12-07T01:11:12;32.23;;;15.27;;
73951;SDS011;62304;47.662;18.324;2022-12-07T01:14:16;32.17;;;15.75;;
73951;SDS011;62304;47.662;18.324;2022-12-07T01:17:20;30.92;;;14.55;;
73951;SDS011;62304;47.662;18.324;2022-12-07T01:20:23;28.77;;;13.68;;
73951;SDS011;62304;47.662;18.324;2022-12-07T01:23:26;30.98;;;15.63;;
73951;SDS011;62304;47.662;18.324;2022-12-07T01:26:29;25.83;;;13.27;;
73951;SDS011;62304;47.662;18.324;2022-12-07T01:29:32;25.90;;;11.98;;
73951;SDS011;62304;47.662;18.324;2022-12-07T01:32:35;25.08;;;10.65;;
73951;SDS011;62304;47.662;18.324;2022-12-07T01:35:38;26.10;;;11.85;;
73951;SDS011;62304;47.662;18.324;2022-12-07T01:38:41;26.92;;;13.10;;
73951;SDS011;62304;47.662;18.324;2022-12-07T01:41:44;26.57;;;12.80;;
73951;SDS011;62304;47.662;18.324;2022-12-07T01:48:22;22.77;;;12.02;;
73951;SDS011;62304;47.662;18.324;2022-12-07T01:51:31;23.33;;;11.63;;
73951;SDS011;62304;47.662;18.324;2022-12-07T01:54:34;22.92;;;11.57;;
73951;SDS011;62304;47.662;18.324;2022-12-07T01:57:39;25.17;;;11.20;;
73951;SDS011;62304;47.662;18.324;2022-12-07T02:00:45;22.40;;;11.95;;
73951;SDS011;62304;47.662;18.324;2022-12-07T02:03:49;20.83;;;10.95;;
73951;SDS011;62304;47.662;18.324;2022-12-07T02:06:51;22.00;;;10.70;;
73951;SDS011;62304;47.662;18.324;2022-12-07T02:09:56;21.95;;;11.18;;
73951;SDS011;62304;47.662;18.324;2022-12-07T02:13:04;22.63;;;10.80;;
73951;SDS011;62304;47.662;18.324;2022-12-07T02:27:05;22.17;;;11.02;;
73951;SDS011;62304;47.662;18.324;2022-12-07T02:30:12;23.27;;;11.60;;
73951;SDS011;62304;47.662;18.324;2022-12-07T02:33:18;22.92;;;11.25;;
73951;SDS011;62304;47.662;18.324;2022-12-07T02:36:31;23.52;;;11.60;;
73951;SDS011;62304;47.662;18.324;2022-12-07T02:39:46;25.95;;;11.75;;
73951;SDS011;62304;47.662;18.324;2022-12-07T02:43:00;26.48;;;12.90;;
73951;SDS011;62304;47.662;18.324;2022-12-07T02:46:17;24.10;;;11.60;;
73951;SDS011;62304;47.662;18.324;2022-12-07T02:49:25;29.33;;;13.48;;
73951;SDS011;62304;47.662;18.324;2022-12-07T02:52:30;25.80;;;12.85;;
73951;SDS011;62304;47.662;18.324;2022-12-07T02:55:37;30.02;;;14.43;;
73951;SDS011;62304;47.662;18.324;2022-12-07T03:05:31;30.52;;;14.32;;
73951;SDS011;62304;47.662;18.324;2022-12-07T03:12:17;27.00;;;13.55;;
73951;SDS011;62304;47.662;18.324;2022-12-07T03:15:26;29.98;;;14.38;;
73951;SDS011;62304;47.662;18.324;2022-12-07T03:18:36;35.03;;;14.83;;
73951;SDS011;62304;47.662;18.324;2022-12-07T03:21:44;27.65;;;13.62;;
73951;SDS011;62304;47.662;18.324;2022-12-07T03:25:07;29.83;;;15.15;;
73951;SDS011;62304;47.662;18.324;2022-12-07T03:28:13;28.10;;;14.57;;
73951;SDS011;62304;47.662;18.324;2022-12-07T03:31:25;33.63;;;15.00;;
73951;SDS011;62304;47.662;18.324;2022-12-07T03:34:35;27.87;;;13.33;;
73951;SDS011;62304;47.662;18.324;2022-12-07T03:37:47;29.70;;;13.65;;
73951;SDS011;62304;47.662;18.324;2022-12-07T03:41:09;29.50;;;13.60;;
73951;SDS011;62304;47.662;18.324;2022-12-07T03:44:33;23.73;;;11.05;;
73951;SDS011;62304;47.662;18.324;2022-12-07T03:47:42;11.52;;;6.35;;
73951;SDS011;62304;47.662;18.324;2022-12-07T03:51:16;25.73;;;11.57;;
73951;SDS011;62304;47.662;18.324;2022-12-07T03:58:11;23.83;;;11.52;;
73951;SDS011;62304;47.662;18.324;2022-12-07T04:01:18;24.87;;;12.10;;
73951;SDS011;62304;47.662;18.324;2022-12-07T04:04:22;24.80;;;13.50;;
73951;SDS011;62304;47.662;18.324;2022-12-07T04:07:26;26.07;;;12.43;;
73951;SDS011;62304;47.662;18.324;2022-12-07T04:10:29;28.45;;;15.55;;
73951;SDS011;62304;47.662;18.324;2022-12-07T04:13:33;38.03;;;20.05;;
73951;SDS011;62304;47.662;18.324;2022-12-07T04:16:57;30.02;;;15.77;;
73951;SDS011;62304;47.662;18.324;2022-12-07T04:20:00;27.20;;;13.73;;
73951;SDS011;62304;47.662;18.324;2022-12-07T04:23:04;26.40;;;14.00;;
73951;SDS011;62304;47.662;18.324;2022-12-07T04:26:07;30.17;;;13.73;;
73951;SDS011;62304;47.662;18.324;2022-12-07T04:29:10;33.35;;;15.57;;
73951;SDS011;62304;47.662;18.324;2022-12-07T04:32:13;31.73;;;14.35;;
73951;SDS011;62304;47.662;18.324;2022-12-07T04:35:16;43.60;;;18.50;;
73951;SDS011;62304;47.662;18.324;2022-12-07T04:38:20;40.33;;;16.17;;
73951;SDS011;62304;47.662;18.324;2022-12-07T04:41:23;44.78;;;18.15;;
73951;SDS011;62304;47.662;18.324;2022-12-07T04:44:29;30.55;;;14.65;;
73951;SDS011;62304;47.662;18.324;2022-12-07T04:47:33;30.33;;;14.02;;
73951;SDS011;62304;47.662;18.324;2022-12-07T04:50:35;31.35;;;14.48;;
73951;SDS011;62304;47.662;18.324;2022-12-07T04:53:47;35.17;;;16.43;;
73951;SDS011;62304;47.662;18.324;2022-12-07T04:56:50;36.53;;;15.77;;
73951;SDS011;62304;47.662;18.324;2022-12-07T04:59:53;31.37;;;14.43;;
73951;SDS011;62304;47.662;18.324;2022-12-07T05:02:56;32.17;;;16.52;;
73951;SDS011;62304;47.662;18.324;2022-12-07T05:05:59;31.95;;;15.57;;
73951;SDS011;62304;47.662;18.324;2022-12-07T05:09:02;27.83;;;14.20;;
73951;SDS011;62304;47.662;18.324;2022-12-07T05:12:05;27.55;;;14.50;;
73951;SDS011;62304;47.662;18.324;2022-12-07T05:15:08;21.48;;;11.50;;
73951;SDS011;62304;47.662;18.324;2022-12-07T05:18:12;20.75;;;10.90;;
73951;SDS011;62304;47.662;18.324;2022-12-07T05:21:16;23.62;;;12.50;;
73951;SDS011;62304;47.662;18.324;2022-12-07T05:24:19;23.03;;;11.77;;
73951;SDS011;62304;47.662;18.324;2022-12-07T05:27:22;26.12;;;13.50;;
73951;SDS011;62304;47.662;18.324;2022-12-07T05:30:25;20.80;;;11.85;;
73951;SDS011;62304;47.662;18.324;2022-12-07T05:33:30;29.60;;;14.80;;
73951;SDS011;62304;47.662;18.324;2022-12-07T05:36:33;30.42;;;13.68;;
73951;SDS011;62304;47.662;18.324;2022-12-07T05:39:36;28.00;;;13.77;;
73951;SDS011;62304;47.662;18.324;2022-12-07T05:42:40;32.55;;;17.87;;
73951;SDS011;62304;47.662;18.324;2022-12-07T05:45:43;34.03;;;18.20;;
73951;SDS011;62304;47.662;18.324;2022-12-07T05:48:46;35.45;;;18.75;;
73951;SDS011;62304;47.662;18.324;2022-12-07T05:51:49;38.58;;;19.37;;
73951;SDS011;62304;47.662;18.324;2022-12-07T05:54:52;51.20;;;22.40;;
73951;SDS011;62304;47.662;18.324;2022-12-07T05:57:56;43.15;;;19.50;;
73951;SDS011;62304;47.662;18.324;2022-12-07T06:01:18;28.62;;;14.57;;
73951;SDS011;62304;47.662;18.324;2022-12-07T06:04:22;36.65;;;15.77;;
73951;SDS011;62304;47.662;18.324;2022-12-07T06:07:25;29.50;;;14.32;;
73951;SDS011;62304;47.662;18.324;2022-12-07T06:10:28;27.97;;;14.50;;
73951;SDS011;62304;47.662;18.324;2022-12-07T06:13:31;28.83;;;15.35;;
73951;SDS011;62304;47.662;18.324;2022-12-07T06:16:34;29.65;;;16.37;;
73951;SDS011;62304;47.662;18.324;2022-12-07T06:19:37;30.98;;;15.90;;
73951;SDS011;62304;47.662;18.324;2022-12-07T06:22:40;34.17;;;18.98;;
73951;SDS011;62304;47.662;18.324;2022-12-07T06:25:45;31.67;;;17.93;;
73951;SDS011;62304;47.662;18.324;2022-12-07T06:28:48;29.30;;;16.20;;
73951;SDS011;62304;47.662;18.324;2022-12-07T06:31:51;30.08;;;17.12;;
73951;SDS011;62304;47.662;18.324;2022-12-07T06:34:54;32.38;;;18.20;;
73951;SDS011;62304;47.662;18.324;2022-12-07T06:37:57;29.37;;;16.35;;
73951;SDS011;62304;47.662;18.324;2022-12-07T06:41:01;27.43;;;16.03;;
73951;SDS011;62304;47.662;18.324;2022-12-07T06:44:04;23.83;;;13.88;;
73951;SDS011;62304;47.662;18.324;2022-12-07T06:47:08;26.40;;;13.38;;
73951;SDS011;62304;47.662;18.324;2022-12-07T06:50:31;30.70;;;14.75;;
73951;SDS011;62304;47.662;18.324;2022-12-07T06:53:35;26.42;;;13.65;;
73951;SDS011;62304;47.662;18.324;2022-12-07T06:56:38;21.40;;;11.30;;
73951;SDS011;62304;47.662;18.324;2022-12-07T06:59:41;26.87;;;13.60;;
73951;SDS011;62304;47.662;18.324;2022-12-07T07:02:44;28.83;;;14.60;;
73951;SDS011;62304;47.662;18.324;2022-12-07T07:05:47;30.25;;;15.75;;
73951;SDS011;62304;47.662;18.324;2022-12-07T07:08:50;32.45;;;16.30;;
73951;SDS011;62304;47.662;18.324;2022-12-07T07:11:53;35.40;;;15.93;;
73951;SDS011;62304;47.662;18.324;2022-12-07T07:14:56;111.60;;;41.90;;
73951;SDS011;62304;47.662;18.324;2022-12-07T07:17:59;72.70;;;30.25;;
73951;SDS011;62304;47.662;18.324;2022-12-07T07:21:08;80.05;;;34.58;;
73951;SDS011;62304;47.662;18.324;2022-12-07T07:24:12;70.50;;;36.88;;
73951;SDS011;62304;47.662;18.324;2022-12-07T07:27:15;48.07;;;23.70;;
73951;SDS011;62304;47.662;18.324;2022-12-07T07:30:18;43.10;;;21.85;;
73951;SDS011;62304;47.662;18.324;2022-12-07T07:33:21;80.05;;;38.05;;
73951;SDS011;62304;47.662;18.324;2022-12-07T07:36:24;37.72;;;19.48;;
73951;SDS011;62304;47.662;18.324;2022-12-07T07:39:27;46.97;;;21.92;;
73951;SDS011;62304;47.662;18.324;2022-12-07T07:42:29;54.17;;;26.43;;
73951;SDS011;62304;47.662;18.324;2022-12-07T07:45:32;36.28;;;18.02;;
73951;SDS011;62304;47.662;18.324;2022-12-07T07:48:35;37.00;;;19.70;;
73951;SDS011;62304;47.662;18.324;2022-12-07T07:51:38;34.38;;;17.77;;
73951;SDS011;62304;47.662;18.324;2022-12-07T07:54:41;32.00;;;15.65;;
73951;SDS011;62304;47.662;18.324;2022-12-07T07:57:44;30.30;;;15.37;;
73951;SDS011;62304;47.662;18.324;2022-12-07T08:00:54;27.90;;;14.87;;
73951;SDS011;62304;47.662;18.324;2022-12-07T08:03:57;30.30;;;16.30;;
73951;SDS011;62304;47.662;18.324;2022-12-07T08:07:00;26.42;;;14.70;;
73951;SDS011;62304;47.662;18.324;2022-12-07T08:10:03;28.35;;;13.98;;
73951;SDS011;62304;47.662;18.324;2022-12-07T08:13:07;27.13;;;13.93;;
73951;SDS011;62304;47.662;18.324;2022-12-07T08:16:13;21.73;;;11.18;;
73951;SDS011;62304;47.662;18.324;2022-12-07T08:19:17;20.37;;;11.35;;
73951;SDS011;62304;47.662;18.324;2022-12-07T08:22:20;20.95;;;11.40;;
73951;SDS011;62304;47.662;18.324;2022-12-07T08:25:23;25.80;;;13.30;;
73951;SDS011;62304;47.662;18.324;2022-12-07T08:28:26;23.23;;;10.13;;
73951;SDS011;62304;47.662;18.324;2022-12-07T08:31:28;21.37;;;11.12;;
73951;SDS011;62304;47.662;18.324;2022-12-07T08:34:32;20.77;;;11.23;;
73951;SDS011;62304;47.662;18.324;2022-12-07T08:37:35;23.50;;;12.18;;
73951;SDS011;62304;47.662;18.324;2022-12-07T08:40:38;20.75;;;10.38;;
73951;SDS011;62304;47.662;18.324;2022-12-07T08:43:40;35.73;;;19.33;;
73951;SDS011;62304;47.662;18.324;2022-12-07T08:46:53;20.50;;;9.85;;
73951;SDS011;62304;47.662;18.324;2022-12-07T08:50:01;18.77;;;10.23;;
73951;SDS011;62304;47.662;18.324;2022-12-07T08:53:07;20.10;;;11.05;;
73951;SDS011;62304;47.662;18.324;2022-12-07T08:56:10;26.05;;;12.85;;
73951;SDS011;62304;47.662;18.324;2022-12-07T08:59:13;21.90;;;11.63;;
73951;SDS011;62304;47.662;18.324;2022-12-07T09:02:19;20.45;;;11.07;;
73951;SDS011;62304;47.662;18.324;2022-12-07T09:05:22;23.75;;;10.38;;
73951;SDS011;62304;47.662;18.324;2022-12-07T09:08:29;17.27;;;9.20;;
73951;SDS011;62304;47.662;18.324;2022-12-07T09:11:36;20.80;;;9.63;;
73951;SDS011;62304;47.662;18.324;2022-12-07T09:14:39;21.60;;;11.47;;
73951;SDS011;62304;47.662;18.324;2022-12-07T09:17:43;30.52;;;17.73;;
73951;SDS011;62304;47.662;18.324;2022-12-07T09:20:45;20.90;;;10.77;;
73951;SDS011;62304;47.662;18.324;2022-12-07T09:23:48;20.15;;;11.07;;
73951;SDS011;62304;47.662;18.324;2022-12-07T09:26:51;16.30;;;8.85;;
73951;SDS011;62304;47.662;18.324;2022-12-07T09:29:54;27.30;;;12.43;;
73951;SDS011;62304;47.662;18.324;2022-12-07T09:32:57;16.75;;;8.05;;
73951;SDS011;62304;47.662;18.324;2022-12-07T09:36:00;17.62;;;8.80;;
73951;SDS011;62304;47.662;18.324;2022-12-07T09:39:04;20.37;;;9.45;;
73951;SDS011;62304;47.662;18.324;2022-12-07T09:42:08;14.45;;;7.12;;
73951;SDS011;62304;47.662;18.324;2022-12-07T09:48:36;8.02;;;4.15;;
73951;SDS011;62304;47.662;18.324;2022-12-07T09:51:41;15.18;;;8.02;;
73951;SDS011;62304;47.662;18.324;2022-12-07T09:54:46;13.80;;;7.32;;
73951;SDS011;62304;47.662;18.324;2022-12-07T09:57:50;14.13;;;7.45;;
73951;SDS011;62304;47.662;18.324;2022-12-07T10:00:59;10.50;;;5.37;;
73951;SDS011;62304;47.662;18.324;2022-12-07T10:04:24;11.07;;;6.43;;
73951;SDS011;62304;47.662;18.324;2022-12-07T10:07:29;13.77;;;7.25;;
73951;SDS011;62304;47.662;18.324;2022-12-07T10:10:33;13.32;;;7.80;;
73951;SDS011;62304;47.662;18.324;2022-12-07T10:13:41;13.90;;;7.20;;
73951;SDS011;62304;47.662;18.324;2022-12-07T10:16:52;14.90;;;7.20;;
73951;SDS011;62304;47.662;18.324;2022-12-07T10:20:08;13.27;;;7.35;;
73951;SDS011;62304;47.662;18.324;2022-12-07T10:23:18;12.75;;;6.28;;
73951;SDS011;62304;47.662;18.324;2022-12-07T10:29:46;28.55;;;14.32;;
73951;SDS011;62304;47.662;18.324;2022-12-07T10:32:52;16.97;;;8.80;;
73951;SDS011;62304;47.662;18.324;2022-12-07T10:35:55;13.18;;;7.55;;
73951;SDS011;62304;47.662;18.324;2022-12-07T10:39:00;16.55;;;8.68;;
73951;SDS011;62304;47.662;18.324;2022-12-07T10:42:15;14.40;;;7.75;;
73951;SDS011;62304;47.662;18.324;2022-12-07T10:45:19;11.70;;;6.18;;
73951;SDS011;62304;47.662;18.324;2022-12-07T10:48:25;14.67;;;8.13;;
73951;SDS011;62304;47.662;18.324;2022-12-07T11:01:18;13.43;;;6.85;;
73951;SDS011;62304;47.662;18.324;2022-12-07T11:17:36;17.65;;;7.35;;
73951;SDS011;62304;47.662;18.324;2022-12-07T11:24:17;9.45;;;3.70;;
73951;SDS011;62304;47.662;18.324;2022-12-07T11:31:06;8.65;;;4.40;;
73951;SDS011;62304;47.662;18.324;2022-12-07T11:34:36;10.15;;;4.87;;
73951;SDS011;62304;47.662;18.324;2022-12-07T11:37:41;12.07;;;6.90;;
73951;SDS011;62304;47.662;18.324;2022-12-07T11:40:47;11.73;;;4.85;;
73951;SDS011;62304;47.662;18.324;2022-12-07T11:47:04;14.55;;;8.48;;
73951;SDS011;62304;47.662;18.324;2022-12-07T11:53:26;15.33;;;8.50;;
73951;SDS011;62304;47.662;18.324;2022-12-07T11:56:35;10.93;;;5.97;;
73951;SDS011;62304;47.662;18.324;2022-12-07T11:59:48;11.65;;;6.37;;
73951;SDS011;62304;47.662;18.324;2022-12-07T12:02:58;13.27;;;5.20;;
73951;SDS011;62304;47.662;18.324;2022-12-07T12:06:13;11.52;;;5.37;;
73951;SDS011;62304;47.662;18.324;2022-12-07T12:09:17;12.60;;;6.43;;
73951;SDS011;62304;47.662;18.324;2022-12-07T12:12:56;14.80;;;6.57;;
73951;SDS011;62304;47.662;18.324;2022-12-07T12:23:43;12.85;;;6.20;;
73951;SDS011;62304;47.662;18.324;2022-12-07T12:27:05;13.73;;;6.87;;
73951;SDS011;62304;47.662;18.324;2022-12-07T12:33:28;44.47;;;16.95;;
73951;SDS011;62304;47.662;18.324;2022-12-07T12:39:55;15.18;;;6.30;;
73951;SDS011;62304;47.662;18.324;2022-12-07T12:53:23;16.23;;;6.65;;
73951;SDS011;62304;47.662;18.324;2022-12-07T13:00:14;9.20;;;4.13;;
73951;SDS011;62304;47.662;18.324;2022-12-07T13:03:36;12.00;;;5.53;;
73951;SDS011;62304;47.662;18.324;2022-12-07T13:06:39;10.70;;;4.68;;
73951;SDS011;62304;47.662;18.324;2022-12-07T13:09:44;14.25;;;7.10;;
73951;SDS011;62304;47.662;18.324;2022-12-07T13:22:46;13.10;;;5.80;;
73951;SDS011;62304;47.662;18.324;2022-12-07T13:25:55;11.95;;;6.18;;
73951;SDS011;62304;47.662;18.324;2022-12-07T13:32:26;9.13;;;4.90;;
73951;SDS011;62304;47.662;18.324;2022-12-07T13:35:34;13.43;;;6.82;;
73951;SDS011;62304;47.662;18.324;2022-12-07T13:38:47;13.93;;;7.12;;
73951;SDS011;62304;47.662;18.324;2022-12-07T13:41:53;14.18;;;7.40;;
73951;SDS011;62304;47.662;18.324;2022-12-07T13:45:01;13.65;;;7.53;;
73951;SDS011;62304;47.662;18.324;2022-12-07T13:48:31;15.00;;;6.87;;
73951;SDS011;62304;47.662;18.324;2022-12-07T13:51:48;12.63;;;6.15;;
73951;SDS011;62304;47.662;18.324;2022-12-07T13:54:56;12.13;;;5.45;;
73951;SDS011;62304;47.662;18.324;2022-12-07T13:58:01;11.63;;;5.82;;
73951;SDS011;62304;47.662;18.324;2022-12-07T14:01:05;12.18;;;5.62;;
73951;SDS011;62304;47.662;18.324;2022-12-07T14:04:19;13.80;;;6.43;;
73951;SDS011;62304;47.662;18.324;2022-12-07T14:07:54;13.62;;;5.68;;
73951;SDS011;62304;47.662;18.324;2022-12-07T14:11:00;12.50;;;5.53;;
73951;SDS011;62304;47.662;18.324;2022-12-07T14:14:03;10.15;;;5.25;;
73951;SDS011;62304;47.662;18.324;2022-12-07T14:17:20;13.68;;;5.62;;
73951;SDS011;62304;47.662;18.324;2022-12-07T14:20:28;27.83;;;9.37;;
73951;SDS011;62304;47.662;18.324;2022-12-07T14:23:37;23.27;;;9.60;;
73951;SDS011;62304;47.662;18.324;2022-12-07T14:26:41;25.92;;;9.88;;
73951;SDS011;62304;47.662;18.324;2022-12-07T14:29:44;18.08;;;7.15;;
73951;SDS011;62304;47.662;18.324;2022-12-07T14:32:52;10.98;;;4.90;;
73951;SDS011;62304;47.662;18.324;2022-12-07T14:35:57;13.43;;;5.70;;
73951;SDS011;62304;47.662;18.324;2022-12-07T14:39:01;15.32;;;7.62;;
73951;SDS011;62304;47.662;18.324;2022-12-07T14:42:04;13.20;;;7.32;;
73951;SDS011;62304;47.662;18.324;2022-12-07T14:45:12;16.85;;;8.07;;
73951;SDS011;62304;47.662;18.324;2022-12-07T14:48:17;14.80;;;7.12;;
73951;SDS011;62304;47.662;18.324;2022-12-07T14:51:40;16.60;;;8.13;;
73951;SDS011;62304;47.662;18.324;2022-12-07T14:55:04;18.55;;;11.48;;
73951;SDS011;62304;47.662;18.324;2022-12-07T14:58:12;20.60;;;11.98;;
73951;SDS011;62304;47.662;18.324;2022-12-07T15:01:17;15.70;;;9.10;;
73951;SDS011;62304;47.662;18.324;2022-12-07T15:04:20;16.37;;;8.38;;
73951;SDS011;62304;47.662;18.324;2022-12-07T15:07:23;15.43;;;8.13;;
73951;SDS011;62304;47.662;18.324;2022-12-07T15:10:27;18.25;;;9.73;;
73951;SDS011;62304;47.662;18.324;2022-12-07T15:13:34;17.55;;;9.43;;
73951;SDS011;62304;47.662;18.324;2022-12-07T15:16:55;16.50;;;7.50;;
73951;SDS011;62304;47.662;18.324;2022-12-07T15:20:18;13.38;;;7.00;;
73951;SDS011;62304;47.662;18.324;2022-12-07T15:23:21;12.90;;;6.10;;
73951;SDS011;62304;47.662;18.324;2022-12-07T15:26:26;16.65;;;7.53;;
73951;SDS011;62304;47.662;18.324;2022-12-07T15:29:29;26.70;;;12.25;;
73951;SDS011;62304;47.662;18.324;2022-12-07T15:32:32;34.78;;;17.17;;
73951;SDS011;62304;47.662;18.324;2022-12-07T15:35:44;29.15;;;14.05;;
73951;SDS011;62304;47.662;18.324;2022-12-07T15:38:50;22.17;;;11.00;;
73951;SDS011;62304;47.662;18.324;2022-12-07T15:42:13;29.45;;;12.40;;
73951;SDS011;62304;47.662;18.324;2022-12-07T15:45:16;21.58;;;10.88;;
73951;SDS011;62304;47.662;18.324;2022-12-07T15:48:19;86.10;;;34.53;;
73951;SDS011;62304;47.662;18.324;2022-12-07T15:51:33;51.90;;;21.98;;
73951;SDS011;62304;47.662;18.324;2022-12-07T15:54:36;70.23;;;28.00;;
73951;SDS011;62304;47.662;18.324;2022-12-07T15:57:39;46.42;;;20.15;;
73951;SDS011;62304;47.662;18.324;2022-12-07T16:00:41;48.47;;;20.75;;
73951;SDS011;62304;47.662;18.324;2022-12-07T16:03:45;43.90;;;19.45;;
73951;SDS011;62304;47.662;18.324;2022-12-07T16:06:48;50.70;;;21.48;;
73951;SDS011;62304;47.662;18.324;2022-12-07T16:09:53;56.87;;;20.53;;
73951;SDS011;62304;47.662;18.324;2022-12-07T16:12:56;51.35;;;20.33;;
73951;SDS011;62304;47.662;18.324;2022-12-07T16:16:02;63.42;;;25.65;;
73951;SDS011;62304;47.662;18.324;2022-12-07T16:19:10;56.03;;;22.62;;
73951;SDS011;62304;47.662;18.324;2022-12-07T16:22:13;78.90;;;31.62;;
73951;SDS011;62304;47.662;18.324;2022-12-07T16:25:16;115.67;;;43.03;;
73951;SDS011;62304;47.662;18.324;2022-12-07T16:28:19;58.78;;;26.75;;
73951;SDS011;62304;47.662;18.324;2022-12-07T16:31:24;49.38;;;22.85;;
73951;SDS011;62304;47.662;18.324;2022-12-07T16:34:29;43.58;;;18.58;;
73951;SDS011;62304;47.662;18.324;2022-12-07T16:37:32;39.72;;;18.90;;
73951;SDS011;62304;47.662;18.324;2022-12-07T16:40:35;43.47;;;18.00;;
73951;SDS011;62304;47.662;18.324;2022-12-07T16:43:38;47.95;;;19.02;;
73951;SDS011;62304;47.662;18.324;2022-12-07T16:46:42;61.70;;;21.33;;
73951;SDS011;62304;47.662;18.324;2022-12-07T16:49:45;48.08;;;20.70;;
73951;SDS011;62304;47.662;18.324;2022-12-07T16:52:48;48.28;;;20.95;;
73951;SDS011;62304;47.662;18.324;2022-12-07T16:55:51;50.17;;;21.50;;
73951;SDS011;62304;47.662;18.324;2022-12-07T16:58:58;63.05;;;25.15;;
73951;SDS011;62304;47.662;18.324;2022-12-07T17:02:01;72.65;;;26.00;;
73951;SDS011;62304;47.662;18.324;2022-12-07T17:05:04;52.62;;;23.33;;
73951;SDS011;62304;47.662;18.324;2022-12-07T17:08:08;85.47;;;32.88;;
73951;SDS011;62304;47.662;18.324;2022-12-07T17:11:16;76.18;;;28.75;;
73951;SDS011;62304;47.662;18.324;2022-12-07T17:14:27;91.22;;;37.00;;
73951;SDS011;62304;47.662;18.324;2022-12-07T17:17:53;84.93;;;36.65;;
73951;SDS011;62304;47.662;18.324;2022-12-07T17:21:04;64.15;;;28.33;;
73951;SDS011;62304;47.662;18.324;2022-12-07T17:24:09;80.37;;;32.07;;
73951;SDS011;62304;47.662;18.324;2022-12-07T17:27:14;77.37;;;33.22;;
73951;SDS011;62304;47.662;18.324;2022-12-07T17:30:19;48.78;;;22.67;;
73951;SDS011;62304;47.662;18.324;2022-12-07T17:33:22;52.50;;;22.10;;
73951;SDS011;62304;47.662;18.324;2022-12-07T17:36:27;64.55;;;26.50;;
73951;SDS011;62304;47.662;18.324;2022-12-07T17:39:32;58.90;;;26.23;;
73951;SDS011;62304;47.662;18.324;2022-12-07T17:42:37;80.53;;;32.40;;
73951;SDS011;62304;47.662;18.324;2022-12-07T17:45:42;102.00;;;38.33;;
73951;SDS011;62304;47.662;18.324;2022-12-07T17:48:46;79.68;;;31.25;;
73951;SDS011;62304;47.662;18.324;2022-12-07T17:51:48;101.22;;;35.63;;
73951;SDS011;62304;47.662;18.324;2022-12-07T17:55:10;120.07;;;41.73;;
73951;SDS011;62304;47.662;18.324;2022-12-07T17:58:13;87.32;;;34.15;;
73951;SDS011;62304;47.662;18.324;2022-12-07T18:01:18;85.22;;;33.85;;
73951;SDS011;62304;47.662;18.324;2022-12-07T18:04:26;87.85;;;36.20;;
73951;SDS011;62304;47.662;18.324;2022-12-07T18:07:29;99.93;;;38.37;;
73951;SDS011;62304;47.662;18.324;2022-12-07T18:10:32;103.62;;;39.55;;
73951;SDS011;62304;47.662;18.324;2022-12-07T18:13:35;71.12;;;29.63;;
73951;SDS011;62304;47.662;18.324;2022-12-07T18:16:42;79.55;;;30.67;;
73951;SDS011;62304;47.662;18.324;2022-12-07T18:19:46;69.95;;;28.65;;
73951;SDS011;62304;47.662;18.324;2022-12-07T18:22:50;83.93;;;36.53;;
73951;SDS011;62304;47.662;18.324;2022-12-07T18:25:53;75.05;;;33.55;;
73951;SDS011;62304;47.662;18.324;2022-12-07T18:28:57;74.05;;;33.00;;
73951;SDS011;62304;47.662;18.324;2022-12-07T18:32:01;41.63;;;20.30;;
73951;SDS011;62304;47.662;18.324;2022-12-07T18:35:08;45.30;;;23.10;;
73951;SDS011;62304;47.662;18.324;2022-12-07T18:38:12;53.80;;;25.98;;
73951;SDS011;62304;47.662;18.324;2022-12-07T18:41:20;56.22;;;24.75;;
73951;SDS011;62304;47.662;18.324;2022-12-07T18:44:42;47.10;;;20.15;;
73951;SDS011;62304;47.662;18.324;2022-12-07T18:47:48;53.03;;;22.37;;
73951;SDS011;62304;47.662;18.324;2022-12-07T18:50:58;47.10;;;21.43;;
73951;SDS011;62304;47.662;18.324;2022-12-07T18:54:03;49.10;;;23.45;;
73951;SDS011;62304;47.662;18.324;2022-12-07T18:57:10;54.03;;;22.80;;
73951;SDS011;62304;47.662;18.324;2022-12-07T19:00:13;59.83;;;27.33;;
73951;SDS011;62304;47.662;18.324;2022-12-07T19:03:19;57.62;;;26.67;;
73951;SDS011;62304;47.662;18.324;2022-12-07T19:06:23;56.90;;;26.67;;
73951;SDS011;62304;47.662;18.324;2022-12-07T19:09:27;62.08;;;30.35;;
73951;SDS011;62304;47.662;18.324;2022-12-07T19:12:34;71.32;;;31.58;;
73951;SDS011;62304;47.662;18.324;2022-12-07T19:15:39;62.35;;;26.10;;
73951;SDS011;62304;47.662;18.324;2022-12-07T19:18:43;59.97;;;29.77;;
73951;SDS011;62304;47.662;18.324;2022-12-07T19:21:53;65.65;;;31.12;;
73951;SDS011;62304;47.662;18.324;2022-12-07T19:24:57;61.03;;;28.38;;
73951;SDS011;62304;47.662;18.324;2022-12-07T19:28:00;55.58;;;26.45;;
73951;SDS011;62304;47.662;18.324;2022-12-07T19:31:08;59.43;;;24.83;;
73951;SDS011;62304;47.662;18.324;2022-12-07T19:34:17;47.53;;;21.87;;
73951;SDS011;62304;47.662;18.324;2022-12-07T19:37:21;70.62;;;26.37;;
73951;SDS011;62304;47.662;18.324;2022-12-07T19:40:25;94.28;;;32.55;;
73951;SDS011;62304;47.662;18.324;2022-12-07T19:43:31;108.13;;;34.73;;
73951;SDS011;62304;47.662;18.324;2022-12-07T19:46:37;123.15;;;43.58;;
73951;SDS011;62304;47.662;18.324;2022-12-07T19:49:45;56.72;;;23.40;;